1小时前
罗盘
风向 的 风向 180° Langogne - Lespéron Airport 4/22
风: 10 千吨, 3 beaufort
0 500 1.500 3.000 5.000 8.000 10.000
FEW 2.800 ft
OVC 11.000 ft
METAR LFLU 041800Z AUTO 18010KT 9999 FEW028 OVC110 07/06 Q1008

METAR定义 | 嵌入

24小时趋势

航班类别VFRLIFR
温度7 °C4 °C
风速17 千吨0 千吨
能见度10 公里+0 米

更多历史数据

下载我们的安卓应用程序

从你的主屏幕上轻松地访问你的航空天气。
只需一次付费,您就可以获得无广告的体验。

您会帮助我们保持Metar-Taf.com正常运行吗?
您的贡献有助于网站的进一步开发并支付费用。

没有更多广告

您是捐款5美元还是更多?然后,我们将永远不会再向您展示广告,这是我们永恒的感谢!
捐赠前先登录

METAR Langogne - Lespéron Airport

Langogne - Lespéron Airport是Verdun,法国中的小机场。 机场有{a,plural,=1{一条跑道} other{#跑道}}: 4/22

Langogne - Lespéron Airport最近未发布观察结果。相反,我们向您显示89 km的报告Valence-Chabeuil Airport。 该报告是针对2021年12月4日 19:00, 当地时间进行的。

机场观察

风来自南 (180°)方向,速度为10 千吨。

可见度为10 公里 或者更多。

有几云在2.800 ft的高度 和 乌云密布在11.000 ft的高度。 破损或更高的上限为11.000 ft。

温度为7 °C,阵风为3 °C。 露点为6 °C,相对湿度为93%。 海平面上的气压为1008 压力 (QNH)。

白天

今天,太阳从08:04升起,在17:04降落。 这适用于Langogne - Lespéron Airport,世界夏令时可能有所不同。 当地时间与世界标准时间之间的时差为+1 小时。 当前,没有夏令时有效。

公司介绍

我们没有关于这个机场的公司信息。

体会

到Vliegles.nl去找飞行课程,跳伞和其他飞行体验。 浏览页面,了解Langogne - Lespéron Airport附近所有可用的活动。 你也可以使用搜索功能来寻找你所在地附近的特定飞行课程、跳伞或其他飞行体验。

您是否要在网站上Langogne - Lespéron Airport飞行的天气? 阅读更多   自由!